Claudiu Puscas

Chief Scout - Viitorul
20 Nov 2027
Saturday
Process

Personality

Adaptability (7) Ambition (11) Controversy (2) Loyalty (14) Pressure (18) Professionalism (17) Sportsmanship (7) Temperament (3)

Profile

Coaching Style Democratic
License Continental Pro
Determination 3
Man Management 5
Motivating 7
Discipline 5
Job Satisfaction
93%
Fatigue
0%
Role Chief Scout
Wage 40.3K p/w
Contract 14.03.2029

Performance

Behaviour Good
Training Effectiveness
40%
Player Development
30%
Injury Prevention
20%
Tactical Implementation
50%

Recent Events

Attended a recruitment meeting now
Attended a recruitment meeting 7d ago
Recommended a transfer target 7d ago
Attended a recruitment meeting 7d ago
Attended a recruitment meeting 14d ago
Recommended a transfer target 14d ago
Attended a recruitment meeting 14d ago
Attended a recruitment meeting 21d ago

Currently Monitoring

205
Player Club Status Ability Confidence Watched Last Observed Latest Vote
Niall Ennis Blackpool Active 118 / 110 40% 3 02.08.2027 -
Sam Bell Bristol City Active 119 / 128 40% 3 02.08.2027 -
Fabrizio Cavegn Bristol Rovers Active 116 / 114 40% 3 28.07.2027 -
Ronan Hale Gillingham Active 115 / 116 40% 2 28.07.2027 -
Josh Coburn Millwall Active 122 / 122 40% 3 26.07.2027 -
Bradley Fink Wycombe Wanderers Active 108 / 118 40% 2 26.07.2027 -
Yuki Ohashi Blackburn Rovers Active 124 / 119 40% 2 26.07.2027 -
Lorent Tolaj Plymouth Argyle Active 116 / 120 40% 5 21.06.2027 -
Aaron Collins Milton Keynes Dons Active 122 / 117 40% 6 21.06.2027 -
Camillo Tavernelli Arezzo Lost 113 / 113 40% 1 21.06.2027 -
Kelly Saravanan Salford City Active 118 / 110 40% 2 14.06.2027 -
Rui Costa Port Vale Active 112 / 113 40% 4 14.06.2027 -
Daniel Udoh Salford City Active 105 / 103 40% 2 29.05.2027 -
Aaron Drinan Swindon Town Active 108 / 109 40% 3 29.05.2027 -
Camilo Durán Bloemfontein Celtic Active 112 / 124 40% 8 28.05.2027 -
John Yeboah Venezia Active 121 / 114 40% 5 28.05.2027 -
Giuseppe Di Serio Spezia Active 124 / 126 40% 1 27.05.2027 -
Mees Rijks Bristol Rovers Active 112 / 110 40% 4 26.05.2027 -
Lewis McCann Fleetwood Town Active 95 / 104 40% 2 26.05.2027 -
Thalys Almería Active 123 / 122 40% 1 26.05.2027 -
Sam Nombe Milton Keynes Dons Active 109 / 107 40% 5 25.05.2027 -
Jérémy Le Douaron Palermo Active 123 / 121 40% 2 25.05.2027 -
Malik Mothersille Stockport County Active 112 / 120 40% 2 24.05.2027 -
Ettore Gliozzi Mantova Active 121 / 111 40% 1 24.05.2027 -
Chico Banza Zamalek Active 105 / 107 40% 3 22.05.2027 -
Tammer Kumar West Bromwich Albion Active 122 / 117 40% 2 22.05.2027 -
Justin Obikwu Queens Park Rangers Active 96 / 107 40% 2 21.05.2027 -
Josh Koroma Leyton Orient Active 107 / 101 40% 2 21.05.2027 -
Christian Saydee Wigan Athletic Active 113 / 117 40% 1 21.05.2027 -
Silvio Merkaj Vicenza Active 116 / 116 40% 3 19.05.2027 -
Kyle Wootton Stockport County Active 121 / 122 40% 6 19.05.2027 -
Callum Lang Preston Active 112 / 121 40% 3 17.05.2027 -
Calum Kavanagh Oldham Athletic Active 102 / 105 40% 3 17.05.2027 -
Aidomo Emakhu Oxford United Active 116 / 120 40% 2 16.05.2027 -
David Okereke Cremonese Active 125 / 125 40% 3 14.05.2027 -
Shayne Lavery Cambridge United Active 105 / 103 40% 3 13.05.2027 -
Jalen Blesa Rio Ave Active 118 / 123 40% 2 12.05.2027 -
Isaac Success El Masry Active 123 / 109 40% 1 10.05.2027 -
Jake Beesley Burton Albion Active 96 / 98 40% 3 08.05.2027 -
Emil Riis Leicester City Active 119 / 126 40% 1 08.05.2027 -
Florin Tănase Omonoia Active 130 / 136 40% 4 05.05.2027 -
Harvey Blair Portsmouth Active 122 / 120 40% 1 05.05.2027 -
Javi Zarzo Gubbio Active 105 / 93 40% 1 30.04.2027 -
Marcus Browne AFC Wimbledon Active 112 / 105 40% 2 28.04.2027 -
Matteo Rover Reggiana Active 119 / 120 40% 1 27.04.2027 -
Matty Stevens AFC Wimbledon Active 102 / 109 40% 3 22.04.2027 -
German Onugkha Rodina Active 119 / 116 40% 4 19.04.2027 -
Elijah Adebayo Luton Town Active 128 / 130 40% 6 17.04.2027 -
Marezi Portsmouth Active 122 / 116 40% 3 15.04.2027 -
Giacomo Zecca Torres Active 112 / 112 40% 1 13.04.2027 -
Tyreece Campbell Charlton Athletic Active 116 / 127 40% 4 11.04.2027 -
Wandile Duba Maritzburg United Active 114 / 98 40% 3 09.04.2027 -
Dale Taylor Blackpool Active 116 / 110 40% 1 09.04.2027 -
David Miculescu FCSB Active 123 / 120 40% 10 04.04.2027 -
Kamran Aliev SKA Khabarovsk Active 98 / 102 40% 2 03.04.2027 -
Lamine Cissé Peterborough United Active 117 / 130 40% 4 30.03.2027 -
Ali Youssef Apollon Active 119 / 119 40% 5 29.03.2027 -
Stephen Humphrys Bradford City Active 111 / 113 40% 3 29.03.2027 -
Sam Smith Wrexham Active 114 / 116 40% 1 28.03.2027 -
Giorgi Kvernadze Frosinone Active 128 / 119 40% 1 20.03.2027 -
Oli McBurnie Hull City Active 137 / 135 40% 1 19.03.2027 -
Lamine Diakité Djoliba Active 97 / 95 40% 1 19.03.2027 -
Mihailo Ivanović Millwall Active 128 / 124 40% 2 18.03.2027 -
Samuel Tetteh Ashanti Gold Active 100 / 105 40% 1 17.03.2027 -
Victor Adeboyejo El Masry Active 98 / 99 40% 1 16.03.2027 -
Samuel Kalu Botev Plovdiv Active 117 / 109 40% 6 15.03.2027 -
Armstrong Oko-Flex Levski Active 114 / 124 40% 2 15.03.2027 -
Hamdi Labidi Olympique Akbou Active 99 / 93 40% 2 15.03.2027 -
Mathias Jørgensen Blackburn Rovers Active 128 / 116 40% 2 13.03.2027 -
Jamie Reid Stevenage Active 102 / 112 40% 1 12.03.2027 -
Davis Keillor-Dunn Wrexham Active 112 / 116 40% 1 11.03.2027 -
Enzo López Cosenza Active 111 / 105 40% 1 05.03.2027 -
Victor Torp Coventry City Active 122 / 133 40% 1 04.03.2027 -
Brayan Gil Baltika Active 128 / 130 40% 1 26.02.2027 -
Ante Aralica Lokomotiv Sofia Active 105 / 99 40% 2 18.02.2027 -
Etiosa Ighodaro Kaizer Chiefs Active 106 / 99 40% 1 17.02.2027 -
François Kamano Sochi Active 116 / 112 40% 1 12.02.2027 -
Oleksii Hutsuliak Polissia Active 133 / 120 40% 4 10.02.2027 -
Leandro Godoy CSKA Sofia Active 117 / 111 40% 1 07.02.2027 -
Edarlyn Reyes Arsenal Tula Active 105 / 113 40% 1 06.02.2027 -
Patrick Schmidt Tarxien Rainbows Active 100 / 105 40% 1 05.02.2027 -
Marin Benko Zadar Active 129 / 126 40% 1 03.02.2027 -
Iqraam Rayners Mamelodi Sundowns Active 130 / 141 40% 4 02.02.2027 -
Ryan Hedges Derby County Active 121 / 112 40% 1 26.01.2027 -
Matei Goga Universitatea Craiova Active 75 / 89 72% 1 25.01.2027 Approve
Kristoffer Zachariassen Ferencvaros Active 121 / 128 40% 1 18.01.2027 -
Bojan Radulović Huddersfield Town Active 116 / 120 40% 3 01.01.2027 -
Maicon Levski Active 126 / 131 40% 2 28.12.2026 -
Ştefan Bană ND Gorica Active 91 / 97 40% 2 27.12.2026 -
Andreiaş Calcan Lucko Active 105 / 100 40% 2 26.12.2026 -
Zoran Mitrov Universitatea Craiova Active 112 / 108 40% 2 26.12.2026 -
Oussama Idrissi Ferencvaros Active 135 / 132 40% 6 25.12.2026 -
Heriberto Tavares Universitatea Craiova Active 107 / 111 40% 1 25.12.2026 -
Lebohang Maboe Kaizer Chiefs Active 116 / 125 40% 2 24.12.2026 -
Mduduzi Shabalala Kaizer Chiefs Active 108 / 107 40% 2 23.12.2026 -
Mamoudou Karamoko Dinamo Bucharest Active 117 / 117 40% 12 22.12.2026 -
Manu Nieto Andorra Active 112 / 116 40% 1 22.12.2026 -
Thulani Mabaso Chippa United Active 115 / 118 40% 1 22.12.2026 -
Nduduzo Sibiya Golden Arrows Active 109 / 122 40% 2 20.12.2026 -
Jonathan Okoronkwo Torpedo Moscow Active 102 / 106 40% 1 20.12.2026 -
Artem Slesar Zorya Active 118 / 107 40% 1 18.12.2026 -
Lebo Mothiba Mamelodi Sundowns Active 118 / 106 40% 1 17.12.2026 -
Velemseni Ndwandwe Golden Arrows Active 101 / 98 40% 1 17.12.2026 -
Julio Alonso Huesca Active 115 / 127 40% 1 17.12.2026 -
Cătălin Cîrjan Dinamo Bucharest Active 120 / 115 40% 3 16.12.2026 -
Otar Kiteishvili Sturm Graz Active 129 / 134 40% 1 16.12.2026 -
Borislav Tsonev CSKA 1948 Active 115 / 107 40% 1 13.12.2026 -
Jens Petter Hauge Bodo/Glimt Active 130 / 136 40% 3 12.12.2026 -
Alberto Soro Dinamo Bucharest Active 124 / 108 40% 5 11.12.2026 -
Alin Fică CFR Cluj Active 115 / 127 40% 2 10.12.2026 -
Ştefan Baiaram Universitatea Craiova Lost 129 / 121 40% 5 09.12.2026 -
Denzel Jubitana Neftchi Active 115 / 118 40% 1 09.12.2026 -
Leo Goglichidze Rodina Active 114 / 116 40% 1 09.12.2026 -
Alexandru Cicâldău Universitatea Craiova Active 121 / 125 40% 2 08.12.2026 -
Ştefan Bodişteanu Botosani Active 112 / 111 40% 1 08.12.2026 -
Reda Khadra Qarabag Active 142 / 140 40% 1 07.12.2026 Needs More Info
Meriton Korenica CFR Cluj Active 131 / 133 40% 4 06.12.2026 -
Ádin Molnár MTK Budapest Active 115 / 109 40% 2 05.12.2026 -
Itumeleng Mkhize Platinum Stars Active 122 / 116 40% 2 05.12.2026 -
Ammar Ramadan DAC Dunajska Streda Active 126 / 128 40% 3 04.12.2026 -
Daniil Agureev Amkar Active 92 / 81 40% 1 03.12.2026 -
Seedy Jatta Sturm Graz Active 118 / 116 40% 2 02.12.2026 -
Marius Corbu Bekescsaba Active 95 / 99 40% 1 30.11.2026 -
Vegard Erlien Tromso Active 132 / 131 40% 2 29.11.2026 -
Martins Júnior Zira Active 110 / 113 40% 1 29.11.2026 -
Daniel Harvie Wycombe Wanderers Active 114 / 111 40% 1 29.11.2026 -
Oday Dabbagh Zamalek Active 97 / 96 40% 1 29.11.2026 -
Bernard Tekpetey Ludogorets Active 123 / 132 40% 2 26.11.2026 -
Natanaël Thio Petrolul Active 113 / 106 40% 1 26.11.2026 -
Achraf Bencharki Rapid Wien Active 127 / 117 40% 1 25.11.2026 -
Bahlul Mammadov Inter Active 107 / 104 40% 3 23.11.2026 -
Cristian Mihai Dinamo Bucharest Active 107 / 103 40% 1 23.11.2026 -
Carlos Paraco Metalist Active 109 / 109 40% 1 23.11.2026 -
Tshepang Moremi Orlando Pirates Active 125 / 105 40% 1 18.11.2026 -
Aldair Ferreira Astra Active 107 / 106 40% 1 18.11.2026 -
Carlos Mora Universitatea Craiova Active 126 / 123 40% 1 16.11.2026 -
Sebastian Mailat Botosani Active 117 / 119 40% 1 14.11.2026 -
Paul Nita Astra Lost 103 / 98 40% 1 14.11.2026 Needs More Info
Tomás Chancalay Minnesota United FC Active 115 / 113 40% 1 14.11.2026 -
Milán Tóth Vasas Active 112 / 115 40% 1 13.11.2026 -
Assad Al Hamlawi FCSB Active 121 / 111 40% 1 10.11.2026 -
Jesper Cornelius IK Start Active 97 / 109 40% 1 10.11.2026 -
Matej Trusa DAC Dunajska Streda Active 109 / 107 40% 1 10.11.2026 -
Chinedu Geoffrey Krylya Sovetov Active 117 / 116 40% 1 10.11.2026 -
Liel Abada Charlotte Football Club Active 125 / 140 40% 2 09.11.2026 -
Krisztofer Horváth Ujpest Active 113 / 113 40% 1 09.11.2026 -
Johannes Eggestein Austria Wien Active 133 / 131 40% 1 07.11.2026 -
Ola Brynhildsen Bodo/Glimt Active 135 / 136 40% 1 07.11.2026 -
Jerome Karelse Golden Arrows Active 92 / 93 40% 1 07.11.2026 -
Andrei Cordea CFR Cluj Active 120 / 118 40% 1 04.11.2026 -
Aljoša Matko Ujpest Active 113 / 119 40% 1 04.11.2026 -
Isaac Matondo Koper Active 109 / 105 40% 3 01.11.2026 -
Yegor Golenkov Rostov Active 119 / 122 40% 1 30.10.2026 Needs More Info
Eren Aydın Zira Active 118 / 121 40% 1 30.10.2026 -
Vladimir Nikolov Slavia Sofia Active 112 / 110 40% 2 29.10.2026 -
Chuchu Ramírez Nacional Active 137 / 130 40% 2 26.10.2026 -
Marko Brest Olimpija Ljubljana Active 109 / 108 40% 1 25.10.2026 -
Breel Embolo Atlanta United FC Active 148 / 137 40% 1 24.10.2026 -
Claudy M'Buyi Rapid Wien Active 111 / 117 40% 1 24.10.2026 -
Iuri Medeiros Ujpest Active 118 / 115 40% 1 23.10.2026 -
Dorin Dragusin Pandurii Active 117 / 122 40% 1 23.10.2026 -
Yeangel Montero Naxxar Lions Active 102 / 97 40% 1 20.10.2026 -
Musa Qurbanlı Qarabag Active 120 / 113 40% 1 20.10.2026 -
Vladislav Sarveli Nizhniy Novgorod Active 107 / 110 40% 1 16.10.2026 -
Matthias Verreth Dinamo Bucharest Active 125 / 113 40% 2 15.10.2026 -
Andrei Dumiter Botosani Active 102 / 92 40% 1 15.10.2026 -
Marlon Mustapha Altach Active 108 / 115 40% 1 13.10.2026 -
Philipp Alaba Austria Wien Active 127 / 124 40% 1 12.10.2026 -
Sveinn Aron Guðjohnsen Vikingur Active 112 / 121 40% 3 11.10.2026 -
Simon Elisor Universitatea Craiova Active 126 / 114 40% 2 10.10.2026 -
Pedro Marques Apollon Active 121 / 109 40% 1 10.10.2026 -
Renaldo Cephas Qarabag Active 110 / 120 40% 2 09.10.2026 -
Vyacheslav Grulev Nizhniy Novgorod Active 113 / 118 40% 1 09.10.2026 -
Radek Šiler Podbrezova Active 111 / 111 40% 1 06.10.2026 -
Dominik Kocsis Debrecen Active 104 / 113 40% 1 06.10.2026 -
Dávid Ďuriš Rosenborg Active 111 / 117 40% 1 05.10.2026 -
Marcelo Torres Gimnasia La Plata Active 115 / 110 40% 2 04.10.2026 -
Oscar Osorio Atletico Venezuela Active 112 / 128 40% 1 04.10.2026 -
Alexandr Rudenko Lokomotiv Moscow Active 117 / 112 40% 1 03.10.2026 -
Alexei Dominguez Pachuca Active 104 / 112 40% 1 03.10.2026 -
Veljko Birmančević Ferencvaros Active 136 / 124 40% 2 01.10.2026 -
Enzo Larrosa Independiente Medellin Active 106 / 97 40% 1 01.10.2026 -
Federico Girotti Alianza Lima Active 126 / 128 40% 1 29.09.2026 -
Paul Ngongo Aalesund Active 111 / 88 40% 1 28.09.2026 -
Elias Hoff Melkersen Stromsgodset Active 104 / 117 40% 1 27.09.2026 -
Alexandru Pop Dinamo Bucharest Active 96 / 107 40% 2 26.09.2026 -
Gamid Agalarov Dinamo Makhachkala Active 111 / 107 40% 1 25.09.2026 -
Fabricio Oviedo Rosario Central Active 116 / 110 40% 1 24.09.2026 -
Andreas Helmersen Bodo/Glimt Active 119 / 134 40% 1 24.09.2026 -
Benjamin Tetteh NK Maribor Active 110 / 113 40% 1 21.09.2026 -
Timur Suleimanov Rostov Active 113 / 110 40% 1 20.09.2026 -
Emil Breivik Molde Active 135 / 143 40% 1 20.09.2026 -
Antonio Galeano Remo Stars Active 128 / 115 40% 1 20.09.2026 -
Hervin Ongenda Botosani Active 113 / 114 40% 1 19.09.2026 -
Ramiro Ruiz Rodríguez Atlético Tucumán Active 133 / 135 40% 2 17.09.2026 -
Asanele Velebayi Kaizer Chiefs Active 111 / 94 40% 1 14.09.2026 -
George Puşcaş Dinamo Bucharest Active 129 / 125 40% 2 13.09.2026 -
Relebohile Mofokeng Orlando Pirates Active 108 / 129 40% 1 10.09.2026 -
Yanela Mbuthuma Orlando Pirates Active 96 / 120 40% 1 09.09.2026 -
David Kalokoh Ajax Active 114 / 127 40% 1 09.09.2026 -
Marcos Camarda Santiago Wanderers Active 115 / 116 40% 1 31.08.2026 -
Mamadou Thiam FCSB Active 115 / 115 40% 1 24.08.2026 -
Hugo Cuypers Monterrey Active 126 / 129 40% 1 01.08.2026 -
Lisandro Cabrera Maipú Active 125 / 119 40% 1 01.08.2026 -
Joe Gelhardt Hull City Active 125 / 121 40% 1 01.08.2026 -